Time;durP1;ratioP1;P1;durP2;ratioP2;P2;SDS_P1;SDS_P2;PMS_P1;PMS_P2;Temp;Humidity;BMP_temperature;BMP_pressure;BME280_temperature;BME280_humidity;BME280_pressure;Samples;Min_cycle;Max_cycle;Signal;HPM_P1;HPM_P2
2023/04/25 00:01:47;;;;;;;;;;;;;;;12.47;49.41;98780.44;5084065;28;19928;-83
2023/04/25 00:04:12;;;;;;;;;;;;;;;12.45;49.00;98777.13;5081631;28;19928;-83
2023/04/25 00:09:35;;;;;;;;;;;;;;;12.36;49.65;98772.88;5018233;28;19932;-78
2023/04/25 00:12:01;;;;;;;;;;;;;;;12.25;50.08;98775.91;5027823;28;19921;-79
2023/04/25 00:14:27;;;;;;;;;;;;;;;12.05;49.88;98782.59;5028186;28;20612;-80
2023/04/25 00:16:54;;;;;;;;;;;;;;;12.16;48.53;98771.66;5029367;28;19917;-79
2023/04/25 00:19:19;;;;;;;;;;;;;;;12.26;48.33;98772.25;5025910;28;19928;-81
2023/04/25 00:21:46;;;;;;;;;;;;;;;12.28;48.34;98770.28;5031154;28;19924;-83
2023/04/25 00:24:12;;;;;;;;;;;;;;;12.28;48.64;98772.91;5014385;28;19921;-82
2023/04/25 00:26:38;;;;;;;;;;;;;;;12.32;48.43;98772.38;5032577;28;19925;-83
2023/04/25 00:29:03;;;;;;;;;;;;;;;12.38;49.01;98770.03;5033125;28;19943;-82
2023/04/25 00:31:28;;;;;;;;;;;;;;;12.38;48.53;98770.88;5032563;28;20381;-83
2023/04/25 00:33:54;;;;;;;;;;;;;;;12.22;48.82;98763.03;5033048;28;19948;-82
2023/04/25 00:36:20;;;;;;;;;;;;;;;12.24;49.60;98766.34;5031262;28;20260;-82
2023/04/25 00:38:45;;;;;;;;;;;;;;;12.28;49.75;98759.69;5020892;28;19925;-83
2023/04/25 00:41:11;;;;;;;;;;;;;;;12.26;50.28;98759.03;5030158;28;19924;-84
2023/04/25 00:43:37;;;;;;;;;;;;;;;12.05;51.62;98770.19;5013966;28;19921;-83
2023/04/25 00:46:03;;;;;;;;;;;;;;;11.74;53.80;98778.06;5029312;28;19921;-82
2023/04/25 00:48:28;;;;;;;;;;;;;;;11.73;54.04;98792.25;5031669;28;19925;-80
2023/04/25 00:50:54;;;;;;;;;;;;;;;11.64;55.89;98782.69;5031381;28;19921;-78
2023/04/25 00:53:20;;;;;;;;;;;;;;;11.73;56.11;98789.63;5031526;28;19925;-80
2023/04/25 00:55:46;;;;;;;;;;;;;;;11.71;56.58;98788.94;5029409;28;19932;-80
2023/04/25 00:58:12;;;;;;;;;;;;;;;11.70;57.87;98787.28;5029876;28;19984;-79
2023/04/25 01:00:37;;;;;;;;;;;;;;;11.73;57.30;98797.53;5018485;28;19940;-80
2023/04/25 01:03:03;;;;;;;;;;;;;;;11.75;57.34;98792.94;5026596;28;20369;-80
2023/04/25 01:05:29;;;;;;;;;;;;;;;11.72;57.14;98800.34;5030717;28;19928;-81
2023/04/25 01:07:54;;;;;;;;;;;;;;;11.74;56.26;98793.09;5031222;28;19921;-82
2023/04/25 01:10:20;;;;;;;;;;;;;;;11.81;55.40;98794.06;5032268;28;20323;-81
2023/04/25 01:12:47;;;;;;;;;;;;;;;11.81;55.92;98784.31;5023023;28;19929;-81
2023/04/25 01:15:12;;;;;;;;;;;;;;;11.87;56.01;98783.66;5020536;28;19929;-78
2023/04/25 01:17:39;;;;;;;;;;;;;;;11.97;58.36;98793.19;5027330;28;19922;-78
2023/04/25 01:20:04;;;;;;;;;;;;;;;12.09;59.08;98781.25;5013277;28;20404;-77
2023/04/25 01:22:30;;;;;;;;;;;;;;;12.24;61.36;98784.84;5022670;28;19983;-79
2023/04/25 01:24:56;;;;;;;;;;;;;;;12.29;59.64;98783.34;5028690;28;19982;-78
2023/04/25 01:27:22;;;;;;;;;;;;;;;12.36;59.92;98783.47;5030778;28;19975;-78
2023/04/25 01:29:48;;;;;;;;;;;;;;;12.40;58.25;98794.53;5028961;28;20464;-79
2023/04/25 01:32:14;;;;;;;;;;;;;;;12.36;56.35;98790.59;5024152;28;19921;-78
2023/04/25 01:34:39;;;;;;;;;;;;;;;12.11;55.42;98800.44;5018981;28;20350;-77
2023/04/25 01:37:05;;;;;;;;;;;;;;;12.13;55.27;98798.44;5023856;28;20308;-79
2023/04/25 01:39:30;;;;;;;;;;;;;;;12.24;54.69;98800.72;5030262;28;19921;-78
2023/04/25 01:41:57;;;;;;;;;;;;;;;12.21;55.19;98806.34;5012878;28;19975;-78
2023/04/25 01:44:23;;;;;;;;;;;;;;;12.27;55.13;98800.34;5011017;28;19972;-79
2023/04/25 01:46:48;;;;;;;;;;;;;;;12.25;56.67;98803.16;5018978;28;19968;-79
2023/04/25 01:49:14;;;;;;;;;;;;;;;12.27;57.07;98800.34;5036767;28;20284;-79
2023/04/25 01:51:41;;;;;;;;;;;;;;;12.23;58.67;98799.88;5006160;28;19921;-77
2023/04/25 01:54:07;;;;;;;;;;;;;;;12.26;58.09;98804.00;5037987;28;20271;-78
2023/04/25 01:56:36;;;;;;;;;;;;;;;12.24;58.37;98795.44;5004198;28;19921;-78
2023/04/25 01:59:03;;;;;;;;;;;;;;;12.22;58.16;98797.41;5019139;28;19921;-78
2023/04/25 02:01:34;;;;;;;;;;;;;;;12.08;59.26;98795.47;5022087;28;19921;-79
2023/04/25 02:04:15;;;;;;;;;;;;;;;12.03;60.02;98798.63;5018471;28;20293;-80
2023/04/25 02:06:40;;;;;;;;;;;;;;;12.14;59.49;98794.78;5037630;28;19921;-80
2023/04/25 02:09:07;;;;;;;;;;;;;;;12.07;61.23;98793.84;5009547;28;19921;-80
2023/04/25 02:11:32;;;;;;;;;;;;;;;11.94;62.54;98807.59;5041243;28;19921;-80
2023/04/25 02:14:16;;;;;;;;;;;;;;;11.81;63.64;98802.00;5021482;28;19979;-80
2023/04/25 02:16:51;;;;;;;;;;;;;;;11.57;64.64;98792.25;5025544;28;19922;-80
2023/04/25 02:19:17;;;;;;;;;;;;;;;11.45;66.87;98793.59;5024417;28;20424;-80
2023/04/25 02:21:42;;;;;;;;;;;;;;;11.62;64.53;98804.97;5023185;28;19933;-80
2023/04/25 02:24:10;;;;;;;;;;;;;;;11.60;64.22;98805.16;5026645;28;20369;-79
2023/04/25 02:26:35;;;;;;;;;;;;;;;11.50;64.09;98817.69;5018846;28;19929;-80
2023/04/25 02:29:01;;;;;;;;;;;;;;;11.37;65.06;98815.56;5024025;28;19987;-79
2023/04/25 02:31:26;;;;;;;;;;;;;;;11.13;66.46;98809.47;5025308;28;20348;-80
2023/04/25 02:33:51;;;;;;;;;;;;;;;11.08;67.05;98812.56;5022968;28;19940;-79
2023/04/25 02:36:17;;;;;;;;;;;;;;;10.73;72.38;98818.94;5023557;28;20015;-80
2023/04/25 02:38:42;;;;;;;;;;;;;;;10.68;73.58;98813.34;5040714;28;20274;-79
2023/04/25 02:41:07;;;;;;;;;;;;;;;10.73;74.19;98810.22;5021306;28;19925;-77
2023/04/25 02:43:33;;;;;;;;;;;;;;;10.81;72.97;98810.25;5025207;28;19972;-77
2023/04/25 02:45:58;;;;;;;;;;;;;;;10.87;73.28;98813.06;5022367;28;19921;-78
2023/04/25 02:48:23;;;;;;;;;;;;;;;10.94;73.19;98806.16;5012616;28;20401;-77
2023/04/25 02:50:49;;;;;;;;;;;;;;;10.97;73.52;98803.16;5028315;28;19929;-77
2023/04/25 02:53:14;;;;;;;;;;;;;;;10.96;74.67;98804.16;5033631;28;19920;-77
2023/04/25 02:55:45;;;;;;;;;;;;;;;10.83;75.31;98798.53;5023973;28;19932;-77
2023/04/25 02:58:11;;;;;;;;;;;;;;;10.89;75.17;98797.06;5040901;28;19955;-79
2023/04/25 03:00:54;;;;;;;;;;;;;;;10.87;75.21;98799.84;5021498;28;20366;-78
2023/04/25 03:03:23;;;;;;;;;;;;;;;10.90;75.29;98796.06;5024580;28;19967;-78
2023/04/25 03:05:50;;;;;;;;;;;;;;;10.82;76.30;98806.63;5023298;28;20345;-78
2023/04/25 03:08:18;;;;;;;;;;;;;;;10.73;77.27;98800.47;5015121;28;19979;-79
2023/04/25 03:10:44;;;;;;;;;;;;;;;10.39;81.65;98810.28;5021372;28;19989;-78
2023/04/25 03:13:10;;;;;;;;;;;;;;;9.88;86.57;98805.91;5022757;28;20000;-77
2023/04/25 03:15:36;;;;;;;;;;;;;;;9.68;89.22;98815.81;5004380;28;20076;-78
2023/04/25 03:18:02;;;;;;;;;;;;;;;9.72;89.13;98811.91;5008776;28;19925;-79
2023/04/25 03:20:27;;;;;;;;;;;;;;;9.72;87.73;98823.25;5022485;28;19932;-79
2023/04/25 03:22:53;;;;;;;;;;;;;;;9.74;84.05;98826.56;5006328;28;20072;-80
2023/04/25 03:25:18;;;;;;;;;;;;;;;9.89;82.96;98828.66;5014297;28;20040;-79
2023/04/25 03:27:45;;;;;;;;;;;;;;;9.86;83.90;98835.03;5012262;28;20004;-79
2023/04/25 03:30:10;;;;;;;;;;;;;;;9.79;84.29;98834.00;5039860;28;20012;-78
2023/04/25 03:32:37;;;;;;;;;;;;;;;9.88;83.51;98824.34;5020645;28;20561;-78
2023/04/25 03:35:03;;;;;;;;;;;;;;;9.92;84.67;98818.63;5023942;28;19917;-80
2023/04/25 03:37:30;;;;;;;;;;;;;;;9.99;86.16;98824.09;5004156;28;19925;-81
2023/04/25 03:39:55;;;;;;;;;;;;;;;9.96;89.14;98819.94;5023296;28;20376;-81
2023/04/25 03:42:23;;;;;;;;;;;;;;;9.90;90.29;98820.56;5023478;28;20016;-81
2023/04/25 03:44:49;;;;;;;;;;;;;;;9.95;90.28;98826.22;5014614;28;20012;-80
2023/04/25 03:47:14;;;;;;;;;;;;;;;9.95;90.20;98826.22;5014845;28;19967;-80
2023/04/25 03:49:40;;;;;;;;;;;;;;;9.76;92.73;98831.69;5009204;28;19953;-80
2023/04/25 03:52:05;;;;;;;;;;;;;;;9.54;94.85;98834.84;5024370;28;19921;-79
2023/04/25 03:54:37;;;;;;;;;;;;;;;9.56;94.91;98827.59;5035901;28;20326;-81
2023/04/25 03:57:12;;;;;;;;;;;;;;;9.58;93.62;98830.91;5008798;28;19949;-79
2023/04/25 03:59:38;;;;;;;;;;;;;;;9.63;91.61;98828.63;5021747;28;19928;-80
2023/04/25 04:02:05;;;;;;;;;;;;;;;9.50;88.30;98829.03;5032414;28;20155;-80
2023/04/25 04:04:33;;;;;;;;;;;;;;;9.49;87.72;98837.09;5006747;28;19921;-79
2023/04/25 04:07:00;;;;;;;;;;;;;;;9.20;84.51;98842.63;5021989;28;19930;-80
2023/04/25 04:09:28;;;;;;;;;;;;;;;9.36;84.54;98851.50;5036489;28;20304;-80
2023/04/25 04:11:55;;;;;;;;;;;;;;;9.26;83.22;98842.84;5022761;28;19922;-80
2023/04/25 04:14:20;;;;;;;;;;;;;;;9.34;81.91;98850.81;5022872;28;19921;-80
2023/04/25 04:16:47;;;;;;;;;;;;;;;9.21;82.96;98845.09;5011813;28;19980;-81
2023/04/25 04:19:14;;;;;;;;;;;;;;;9.06;84.04;98841.34;5022350;28;19968;-81
2023/04/25 04:21:45;;;;;;;;;;;;;;;9.09;84.94;98851.56;5008350;28;19948;-81
2023/04/25 04:24:11;;;;;;;;;;;;;;;9.02;86.55;98855.78;5038608;28;20293;-82
2023/04/25 04:26:48;;;;;;;;;;;;;;;9.07;86.88;98858.81;5019026;28;20349;-80
2023/04/25 04:29:31;;;;;;;;;;;;;;;9.11;86.93;98854.06;5021455;28;19932;-79
2023/04/25 04:32:05;;;;;;;;;;;;;;;9.08;87.61;98855.19;5014824;28;19929;-81
2023/04/25 04:34:33;;;;;;;;;;;;;;;8.96;88.75;98856.38;5021428;28;19917;-79
2023/04/25 04:37:00;;;;;;;;;;;;;;;8.93;87.99;98854.06;5003014;28;19924;-78
2023/04/25 04:39:25;;;;;;;;;;;;;;;9.02;87.90;98861.03;5020432;28;20271;-80
2023/04/25 04:42:03;;;;;;;;;;;;;;;9.15;87.41;98850.97;5003166;28;19967;-79
2023/04/25 04:44:39;;;;;;;;;;;;;;;9.23;88.04;98858.13;5010126;28;19965;-79
2023/04/25 04:47:42;;;;;;;;;;;;;;;9.22;88.37;98859.91;5015673;28;19968;-78
2023/04/25 04:50:27;;;;;;;;;;;;;;;9.16;88.98;98863.16;5020840;28;19928;-80
2023/04/25 04:53:11;;;;;;;;;;;;;;;9.23;89.15;98853.69;5008519;28;20282;-82
2023/04/25 04:55:37;;;;;;;;;;;;;;;9.35;90.00;98857.75;5029222;28;19928;-82
2023/04/25 04:58:29;;;;;;;;;;;;;;;8.97;95.34;98856.22;5009446;28;19925;-79
2023/04/25 05:01:19;;;;;;;;;;;;;;;8.88;96.20;98861.56;5007251;28;20369;-80
2023/04/25 05:04:14;;;;;;;;;;;;;;;9.08;96.82;98876.22;5014821;28;19921;-80
2023/04/25 05:06:40;;;;;;;;;;;;;;;9.15;97.11;98882.56;5019190;28;20307;-79
2023/04/25 05:09:37;;;;;;;;;;;;;;;9.15;96.64;98877.28;4998911;28;20351;-79
2023/04/25 05:12:19;;;;;;;;;;;;;;;9.24;95.22;98879.03;5019230;28;20334;-77
2023/04/25 05:14:58;;;;;;;;;;;;;;;9.34;95.33;98877.16;5019104;28;19925;-79
2023/04/25 05:17:56;;;;;;;;;;;;;;;9.34;94.47;98882.41;5001938;28;19921;-79
2023/04/25 05:20:40;;;;;;;;;;;;;;;9.25;95.68;98877.19;5014792;28;19967;-79
2023/04/25 05:23:35;;;;;;;;;;;;;;;9.27;94.71;98875.25;5009398;28;19921;-79
2023/04/25 05:26:18;;;;;;;;;;;;;;;9.42;94.69;98874.56;5023710;28;19948;-79
2023/04/25 05:29:03;;;;;;;;;;;;;;;9.50;95.08;98880.88;5029004;28;20012;-78
2023/04/25 05:31:36;;;;;;;;;;;;;;;9.55;97.29;98883.88;5027369;28;20007;-80
2023/04/25 05:34:08;;;;;;;;;;;;;;;9.44;99.76;98887.59;5001852;28;19979;-79
2023/04/25 05:36:52;;;;;;;;;;;;;;;9.47;100.00;98886.47;5019190;28;20413;-81
2023/04/25 05:39:18;;;;;;;;;;;;;;;9.54;100.00;98891.00;5021862;28;20369;-83
2023/04/25 05:42:03;;;;;;;;;;;;;;;9.65;100.00;98889.91;5022648;28;19967;-83
2023/04/25 05:44:47;;;;;;;;;;;;;;;9.74;100.00;98883.72;5017488;28;20014;-82
2023/04/25 05:47:28;;;;;;;;;;;;;;;9.56;100.00;98875.00;5035313;28;19925;-81
2023/04/25 05:50:15;;;;;;;;;;;;;;;9.72;100.00;98883.06;5015419;28;19922;-80
2023/04/25 05:52:55;;;;;;;;;;;;;;;9.85;100.00;98881.66;5035662;28;20328;-80
2023/04/25 05:55:28;;;;;;;;;;;;;;;9.98;100.00;98877.78;5003255;28;20381;-79
2023/04/25 05:57:54;;;;;;;;;;;;;;;9.83;100.00;98878.38;5035718;28;19949;-78
2023/04/25 06:00:19;;;;;;;;;;;;;;;9.89;100.00;98884.81;5020088;28;20368;-77
2023/04/25 06:02:48;;;;;;;;;;;;;;;10.05;100.00;98892.81;4989187;28;19925;-80
2023/04/25 06:05:13;;;;;;;;;;;;;;;9.94;100.00;98895.72;5018487;28;19943;-82
2023/04/25 06:07:39;;;;;;;5.20;2.80;;;;;;;10.16;100.00;98897.00;5018400;28;20470;-83
2023/04/25 06:10:06;;;;;;;;;;;;;;;10.30;97.13;98900.91;5021113;28;20445;-83
2023/04/25 06:12:34;;;;;;;;;;;;;;;10.36;96.55;98895.00;5020572;28;20431;-83
2023/04/25 06:15:00;;;;;;;;;;;;;;;10.20;97.96;98901.84;5029305;28;19928;-81
2023/04/25 06:17:26;;;;;;;;;;;;;;;10.21;97.40;98897.38;5029026;28;20305;-81
2023/04/25 06:19:51;;;;;;;;;;;;;;;10.19;98.70;98884.34;5025644;28;19975;-82
2023/04/25 06:22:17;;;;;;;;;;;;;;;10.34;97.98;98891.69;5037154;28;19921;-82
2023/04/25 06:24:42;;;;;;;;;;;;;;;10.44;98.51;98887.13;5018685;28;19929;-81
2023/04/25 06:27:08;;;;;;;;;;;;;;;10.69;97.56;98888.88;5020969;28;19925;-81
2023/04/25 06:29:33;;;;;;;;;;;;;;;10.89;97.31;98887.63;5034554;28;19944;-81
2023/04/25 06:31:58;;;;;;;;;;;;;;;10.99;98.59;98877.75;5023626;28;19921;-81
2023/04/25 06:34:24;;;;;;;;;;;;;;;11.17;97.88;98877.63;5036381;28;20011;-82
2023/04/25 06:36:50;;;;;;;;;;;;;;;11.36;97.54;98873.84;5018619;28;19921;-83
2023/04/25 06:39:16;;;;;;;;;;;;;;;11.39;99.04;98866.41;5006257;28;19969;-80
2023/04/25 06:41:41;;;;;;;;;;;;;;;11.57;98.77;98871.53;5017351;28;20321;-83
2023/04/25 06:44:14;;;;;;;;;;;;;;;11.77;98.48;98866.78;5021072;28;19920;-80
2023/04/25 06:46:50;;;;;;;;;;;;;;;11.94;98.62;98868.41;5004796;28;19929;-80
2023/04/25 06:49:15;;;;;;;;;;;;;;;12.10;97.03;98875.47;5019523;28;19984;-78
2023/04/25 06:51:41;;;;;;;;;;;;;;;12.08;97.84;98874.78;4995621;28;20373;-79
2023/04/25 06:54:07;;;;;;;;;;;;;;;12.32;97.25;98866.81;5030310;28;19921;-78
2023/04/25 06:56:42;;;;;;;;;;;;;;;12.40;99.43;98869.44;5031454;28;19921;-79
2023/04/25 06:59:12;;;;;;;;;;;;;;;12.30;100.00;98876.75;5013894;28;19921;-79
2023/04/25 07:01:40;;;;;;;;;;;;;;;12.49;99.27;98871.03;5011875;28;19921;-80
2023/04/25 07:04:14;;;;;;;;;;;;;;;12.46;100.00;98863.47;5009152;28;19929;-82
2023/04/25 07:06:49;;;;;;;;;;;;;;;12.46;100.00;98863.47;5015938;28;20007;-79
2023/04/25 07:09:16;;;;;;;;;;;;;;;12.69;100.00;98861.69;5005514;28;19922;-82
2023/04/25 07:11:45;;;;;;;;;;;;;;;12.75;100.00;98862.00;5009207;28;19984;-81
2023/04/25 07:14:10;;;;;;;;;;;;;;;12.82;100.00;98857.66;5036668;28;19921;-78
2023/04/25 07:16:36;;;;;;;;;;;;;;;12.95;100.00;98864.06;5008413;28;19921;-78
2023/04/25 07:19:01;;;;;;;;;;;;;;;13.06;100.00;98862.81;5020765;28;20270;-77
2023/04/25 07:21:27;;;;;;;;;;;;;;;13.11;100.00;98863.13;4985142;28;19921;-84
2023/04/25 07:23:53;;;;;;;;;;;;;;;13.32;100.00;98849.25;5022093;28;19932;-84
2023/04/25 07:26:24;;;;;;;;;;;;;;;13.46;100.00;98859.91;5003584;28;19937;-83
2023/04/25 07:29:08;;;;;;;;;;;;;;;13.43;100.00;98854.94;5038050;28;19928;-86
2023/04/25 07:31:34;;;;;;;;;;;;;;;13.57;100.00;98847.22;5021104;28;19921;-83
2023/04/25 07:33:59;;;;;;;;;;;;;;;13.72;100.00;98850.75;5016969;28;20348;-85
2023/04/25 07:36:26;;;;;;;;;;;;;;;13.86;100.00;98857.91;5012817;28;20123;-89
2023/04/25 07:38:51;;;;;;;;;;;;;;;13.81;100.00;98855.78;5026976;28;19920;-93
2023/04/25 07:41:17;;;;;;;;;;;;;;;13.87;100.00;98864.84;5008309;28;19929;-90
2023/04/25 07:43:43;;;;;;;;;;;;;;;13.98;100.00;98856.44;5033153;28;20385;-94
2023/04/25 07:46:09;;;;;;;;;;;;;;;14.14;100.00;98866.06;5012125;28;19928;-92
2023/04/25 07:48:35;;;;;;;;;;;;;;;14.24;100.00;98856.03;5027552;28;19921;-85
2023/04/25 07:51:01;;;;;;;;;;;;;;;14.41;100.00;98856.69;5040207;28;19991;-88
2023/04/25 07:53:27;;;;;;;;;;;;;;;14.52;100.00;98848.25;5036486;28;19921;-92
2023/04/25 07:55:57;;;;;;;;;;;;;;;14.59;100.00;98854.47;5005582;28;19921;-89
2023/04/25 07:58:23;;;;;;;;;;;;;;;14.59;100.00;98849.16;5026840;28;19921;-90
2023/04/25 08:00:52;;;;;;;;;;;;;;;14.69;100.00;98855.81;4999283;28;19922;-92
2023/04/25 08:03:36;;;;;;;;;;;;;;;14.67;100.00;98852.53;5019262;28;19940;-88
2023/04/25 08:06:05;;;;;;;;;;;;;;;14.73;100.00;98848.31;5027773;28;19949;-90
2023/04/25 08:08:35;;;;;;;;;;;;;;;14.74;100.00;98842.00;4997756;28;19928;-94
2023/04/25 08:11:03;;;;;;;;;;;;;;;14.86;100.00;98853.78;4986171;28;19945;-93
2023/04/25 08:13:29;;;;;;;;;;;;;;;14.81;100.00;98852.69;5014270;28;19981;-88
2023/04/25 08:15:56;;;;;;;;;;;;;;;14.95;100.00;98849.19;5020102;28;20015;-89
2023/04/25 08:18:21;;;;;;;;;;;;;;;14.98;100.00;98854.94;4995735;28;19922;-86
2023/04/25 08:20:48;;;;;;;;;;;;;;;15.04;100.00;98851.53;5019455;28;19929;-85
2023/04/25 08:23:14;;;;;;;;;;;;;;;15.10;100.00;98848.13;4996262;28;19921;-88
2023/04/25 08:25:51;;;;;;;;;;;;;;;15.21;100.00;98844.13;4982380;28;20020;-86
2023/04/25 08:28:21;;;;;;;;;;;;;;;15.33;100.00;98849.75;4986953;28;19932;-94
2023/04/25 08:30:46;;;;;;;;;;;;;;;15.32;100.00;98850.78;5019034;28;20024;-91
2023/04/25 08:33:19;;;;;;;;;;;;;;;15.29;100.00;98835.22;5003633;28;19921;-82
2023/04/25 08:36:05;;;;;;;;;;;;;;;15.48;100.00;98840.72;5005425;28;20016;-86
2023/04/25 08:38:31;;;;;;;;;;;;;;;15.66;100.00;98836.81;4985098;28;19973;-88
2023/04/25 08:40:57;;;;;;;;;;;;;;;15.83;100.00;98835.50;4984198;28;20012;-85
2023/04/25 08:43:23;;;;;;;;;;;;;;;15.92;100.00;98835.16;4993627;28;19922;-86
2023/04/25 08:45:48;;;;;;;;;;;;;;;16.04;100.00;98835.44;5001696;28;19930;-89
2023/04/25 08:48:32;;;;;;;;;;;;;;;16.13;100.00;98838.78;4986958;28;19929;-83
2023/04/25 08:50:58;;;;;;;;;;;;;;;16.06;100.00;98843.25;5001747;28;20050;-85
2023/04/25 08:53:31;;;;;;;;;;;;;;;16.11;100.00;98846.13;5003035;28;19924;-86
2023/04/25 08:56:01;;;;;;;;;;;;;;;16.23;100.00;98841.91;4990285;28;19929;-88
2023/04/25 08:58:27;;;;;;;;;;;;;;;16.28;100.00;98836.81;4969307;28;20325;-85
2023/04/25 09:00:53;;;;;;;;;;;;;;;16.19;100.00;98833.50;4998975;28;19956;-80
2023/04/25 09:03:21;;;;;;;;;;;;;;;16.21;100.00;98836.78;5002210;28;19921;-86
2023/04/25 09:05:47;;;;;;;;;;;;;;;16.31;100.00;98836.44;4959795;28;19922;-86
2023/04/25 09:08:15;;;;;;;;;;;;;;;16.39;100.00;98833.59;5005801;28;19929;-81
2023/04/25 09:10:41;;;;;;;;;;;;;;;16.45;100.00;98831.97;5019866;28;19925;-83
2023/04/25 09:13:11;;;;;;;;;;;;;;;16.46;100.00;98834.44;5035323;28;20075;-81
2023/04/25 09:15:57;;;;;;;;;;;;;;;16.57;100.00;98836.53;5029523;28;20275;-86
2023/04/25 09:18:35;;;;;;;;;;;;;;;16.61;99.71;98837.03;5005843;28;19991;-83
2023/04/25 09:21:08;;;;;;;;;;;;;;;16.67;98.92;98831.69;5035925;28;19928;-79
2023/04/25 09:23:45;;;;;;;;;;;;;;;16.77;98.08;98837.50;5021557;28;20395;-82
2023/04/25 09:26:16;;;;;;;;;;;;;;;16.82;96.87;98834.22;5023342;28;20109;-79
2023/04/25 09:28:43;;;;;;;;;;;;;;;16.86;96.72;98837.28;5009312;28;20369;-79
2023/04/25 09:31:12;;;;;;;;;;;;;;;16.93;96.21;98835.47;5005634;28;19928;-79
2023/04/25 09:33:45;;;;;;;;;;;;;;;16.91;95.50;98832.19;5018477;28;19921;-79
2023/04/25 09:36:13;;;;;;;;;;;;;;;16.90;93.84;98838.56;5024190;28;19921;-77
2023/04/25 09:38:56;;;;;;;;;;;;;;;16.92;91.28;98828.50;5036352;28;20373;-79
2023/04/25 09:41:25;;;;;;;;;;;;;;;16.95;90.00;98830.78;5018898;28;20031;-79
2023/04/25 09:43:56;;;;;;;;;;;;;;;16.98;87.58;98823.19;5005126;28;19925;-78
2023/04/25 09:46:25;;;;;;;;;;;;;;;17.04;86.27;98832.22;5041539;28;19921;-79
2023/04/25 09:48:54;;;;;;;;;;;;;;;17.10;84.52;98828.75;4987145;28;20017;-78
2023/04/25 09:51:30;;;;;;;;;;;;;;;17.19;83.04;98830.22;5008349;28;20289;-79
2023/04/25 09:53:57;;;;;;;;;;;;;;;17.25;84.81;98831.25;5007106;28;20023;-79
2023/04/25 09:56:35;;;;;;;;;;;;;;;17.23;86.19;98825.28;5008969;28;19921;-79
2023/04/25 09:59:03;;;;;;;;;;;;;;;17.10;84.37;98832.25;5023816;28;20382;-79
2023/04/25 10:01:30;;;;;;;;;;;;;;;17.11;84.65;98827.72;5006127;28;19921;-79
2023/04/25 10:04:06;;;;;;;;;;;;;;;17.15;86.90;98828.97;5022857;28;19921;-80
2023/04/25 10:07:07;;;;;;;;;;;;;;;17.18;86.81;98839.25;5010935;28;20024;-78
2023/04/25 10:09:33;;;;;;;;;;;;;;;17.33;85.46;98831.88;4976340;28;19928;-79
2023/04/25 10:11:59;;;;;;;;;;;;;;;17.44;83.38;98833.09;4994805;28;19922;-80
2023/04/25 10:14:25;;;;;;;;;;;;;;;17.44;79.83;98828.59;4991865;28;19964;-79
2023/04/25 10:16:53;;;;;;;;;;;;;;;17.43;79.79;98829.63;4993251;28;19961;-77
2023/04/25 10:19:20;;;;;;;;;;;;;;;17.49;80.29;98826.16;4993393;28;19926;-77
2023/04/25 10:21:48;;;;;;;;;;;;;;;17.58;78.70;98834.75;4963591;28;19961;-78
2023/04/25 10:24:14;;;;;;;;;;;;;;;17.65;75.72;98834.81;4981352;28;19933;-78
2023/04/25 10:26:40;;;;;;;;;;;;;;;17.73;75.89;98831.94;4993464;28;19922;-78
2023/04/25 10:29:05;;;;;;;;;;;;;;;17.83;74.89;98833.16;4993042;28;19976;-77
2023/04/25 10:31:31;;;;;;;;;;;;;;;17.89;73.97;98831.50;4999030;28;20302;-78
2023/04/25 10:33:56;;;;;;;;;;;;;;;17.99;74.27;98827.38;4989219;28;19930;-78
2023/04/25 10:36:22;;;;;;;;;;;;;;;18.12;74.10;98831.06;4984789;28;19933;-79
2023/04/25 10:38:50;;;;;;;;;;;;;;;18.23;72.73;98827.75;5000457;28;19921;-79
2023/04/25 10:41:18;;;;;;;;;;;;;;;18.33;67.68;98828.94;4995179;28;20298;-78
2023/04/25 10:43:45;;;;;;;;;;;;;;;18.41;67.67;98823.38;4994862;28;20012;-78
2023/04/25 10:46:18;;;;;;;;;;;;;;;18.51;72.41;98819.44;5000548;28;20073;-78
2023/04/25 10:48:50;;;;;;;;;;;;;;;18.60;73.95;98815.53;4993141;28;19976;-77
2023/04/25 10:51:23;;;;;;;;;;;;;;;18.56;69.49;98820.47;4998104;28;19928;-79
2023/04/25 10:53:54;;;;;;;;;;;;;;;18.52;68.02;98810.38;4983571;28;19925;-81
2023/04/25 10:56:21;;;;;;;;;;;;;;;18.51;67.55;98816.75;4996333;28;20305;-78
2023/04/25 10:58:47;;;;;;;;;;;;;;;18.45;66.71;98814.94;4998335;28;19925;-78
2023/04/25 11:01:19;;;;;;;;;;;;;;;18.47;68.66;98807.53;4999838;28;20008;-77
2023/04/25 11:03:45;;;;;;;;;;;;;;;18.46;65.40;98805.88;4994834;28;20032;-78
2023/04/25 11:06:23;;;;;;;;;;;;;;;18.47;64.71;98802.19;5000637;28;20376;-78
2023/04/25 11:08:49;;;;;;;;;;;;;;;18.48;64.27;98793.16;4994944;28;19937;-77
2023/04/25 11:11:16;;;;;;;;;;;;;;;18.49;61.57;98794.81;4976333;28;19922;-78
2023/04/25 11:13:41;;;;;;;;;;;;;;;18.50;60.82;98785.72;4997841;28;19929;-77
2023/04/25 11:16:07;;;;;;;;;;;;;;;18.45;58.87;98793.56;4990849;28;19921;-79
2023/04/25 11:18:34;;;;;;;;;;;;;;;18.48;59.81;98787.81;5006222;28;19949;-79
2023/04/25 11:20:59;;;;;;;;;;;;;;;18.55;55.86;98783.31;4995139;28;19921;-78
2023/04/25 11:23:26;;;;;;;;;;;;;;;18.58;52.70;98778.34;4995462;28;19928;-78
2023/04/25 11:25:52;;;;;;;;;;;;;;;18.62;53.05;98776.03;4997642;28;19980;-78
2023/04/25 11:28:24;;;;;;;;;;;;;;;18.69;54.07;98774.16;5003450;28;19922;-78
2023/04/25 11:30:50;;;;;;;;;;;;;;;18.71;52.39;98774.78;4997317;28;19925;-79
2023/04/25 11:33:16;;;;;;;;;;;;;;;18.73;51.66;98770.06;4998011;28;20818;-78
2023/04/25 11:35:41;;;;;;;;;;;;;;;18.81;49.57;98772.47;4993431;28;19944;-79
2023/04/25 11:38:07;;;;;;;;;;;;;;;18.86;49.71;98769.97;4994346;28;19926;-78
2023/04/25 11:40:32;;;;;;;;;;;;;;;18.95;51.78;98768.69;4994539;28;19976;-79
2023/04/25 11:42:59;;;;;;;;;;;;;;;19.04;47.78;98767.38;4995117;28;20021;-79
2023/04/25 11:45:25;;;;;;;;;;;;;;;19.12;48.52;98763.63;4997383;28;19925;-78
2023/04/25 11:47:50;;;;;;;;;;;;;;;19.20;46.53;98766.84;4995508;28;20507;-78
2023/04/25 11:50:15;;;;;;;;;;;;;;;19.31;48.02;98772.56;4996445;28;19957;-78
2023/04/25 11:52:45;;;;;;;;;;;;;;;19.38;46.15;98773.31;4996776;28;20386;-78
2023/04/25 11:55:13;;;;;;;;;;;;;;;19.54;46.92;98772.81;4993058;28;19922;-78
2023/04/25 11:57:39;;;;;;;;;;;;;;;19.59;47.10;98771.09;4980857;28;19925;-78
2023/04/25 12:00:25;;;;;;;;;;;;;;;19.69;46.92;98770.59;4995136;28;19922;-79
2023/04/25 12:02:54;;;;;;;;;;;;;;;19.80;46.43;98772.53;4998648;28;19925;-79
2023/04/25 12:05:23;;;;;;;;;;;;;;;19.98;46.77;98767.22;4995489;28;20032;-78
2023/04/25 12:07:48;;;;;;;;;;;;;;;20.19;46.24;98767.81;5002663;28;20738;-78
2023/04/25 12:10:15;;;;;;;;;;;;;;;20.21;45.11;98773.75;5052908;22;20003;-81
2023/04/25 12:12:44;;;;;;;;;;;;;;;20.32;46.09;98771.19;5058621;28;19946;-82
2023/04/25 12:15:15;;;;;;;;;;;;;;;20.48;45.24;98769.78;5059092;28;19964;-82
2023/04/25 12:17:41;;;;;;;;;;;;;;;20.57;45.83;98768.41;5063583;28;20291;-82
2023/04/25 12:20:10;;;;;;;;;;;;;;;20.64;44.25;98768.31;5060588;28;20015;-83
2023/04/25 12:22:36;;;;;;;;;;;;;;;20.76;44.58;98770.03;5063680;28;19920;-83
2023/04/25 12:25:03;;;;;;;;;;;;;;;20.92;43.73;98770.41;5059571;28;20286;-83
2023/04/25 12:27:30;;;;;;;;;;;;;;;20.99;44.25;98776.50;5063242;28;19927;-82
2023/04/25 12:29:56;;;;;;;;;;;;;;;20.99;42.42;98776.50;5063932;28;20011;-83
2023/04/25 12:32:22;;;;;;;;;;;;;;;21.07;41.88;98770.81;5060125;28;19967;-83
2023/04/25 12:34:47;;;;;;;;;;;;;;;21.25;40.85;98765.41;5062902;28;19931;-84
2023/04/25 12:37:13;;;;;;;;;;;;;;;21.42;40.74;98760.19;5063691;28;20273;-83
2023/04/25 12:39:38;;;;;;;;;;;;;;;21.53;40.66;98762.88;5041645;28;19920;-83
2023/04/25 12:42:03;;;;;;;;;;;;;;;21.62;39.46;98764.16;5063226;28;19920;-82
2023/04/25 12:44:29;;;;;;;;;;;;;;;21.76;39.97;98756.69;5058368;28;19967;-82
2023/04/25 12:46:55;;;;;;;;;;;;;;;21.74;39.12;98756.09;5062331;28;19920;-83
2023/04/25 12:49:20;;;;;;;;;;;;;;;21.63;39.27;98751.56;5061931;28;19942;-82
2023/04/25 12:51:46;;;;;;;;;;;;;;;21.63;39.85;98751.56;5059058;28;20237;-82
2023/04/25 12:54:12;;;;;;;;;;;;;;;21.84;39.11;98758.22;5061397;28;20007;-82
2023/04/25 12:56:37;;;;;;;;;;;;;;;21.99;39.07;98755.91;5059559;28;20066;-82
2023/04/25 12:59:03;;;;;;;;;;;;;;;21.95;38.83;98766.31;5059965;28;19921;-81